Etusivu
METAR-TAF:

METAR-TAF

Lentoasemat :

Sierra Blanca Regional Airport

Ruidoso, New Mexico, Yhdysvallat

Leveyspiiri: 33-28N, Pituuspiiri: 105-32W, korkeus merenpinnasta: 2076 m

Tämänhetkinen sää

Tämä raportti tehtiin 28 minuuttia sitten, kello 10.15 UTC
Tuuli 5 kn lännestä
Lämpötila 20°C
Kosteus 43%
Ilmanpaine 1023 hPa
Näkyvyys: 16.1 km
Hajanaisia pilviä 12000 ft:n korkeudessa

METAR: KSRR 081015Z AUTO 28005KT 10SM SCT120 20/07 A3021 RMK AO2

Aika: 04:43 (10:43 UTC)


TAF: puuttuu

Säähavainnot ja -ennusteet yli 4000 lentoasemalta (METAR- ja TAF-raportit).

Käytössä olevat sääasemat on merkitty karttaan keltaisilla ja punaisilla pisteillä.

Aseta hiiri pisteen päälle nähdäksesi sääaseman nimen.

Klikkaa sitten nähdäksesi säähavainnot ja -ennusteet.

Kartan vaihtaminen: klikkaa mustalla rastilla varustettuja vihreitä pisteitä, niin voit zoomata sisään; viivalla varustettua vihreää pistettä, niin voit zoomata ulos tai vihreitä nuolia, niin pääset viereisille kartoille.


METAR-TAF: